createdAt,value
2019-05-03T00:01:49.876Z,3.50
2019-05-03T00:05:09.466Z,4.10
2019-05-03T00:08:08.182Z,4.03
2019-05-03T01:43:45.699Z,3.80
2019-05-03T03:15:45.762Z,3.43
2019-05-03T03:25:49.342Z,3.07
2019-05-03T04:31:15.446Z,2.00
2019-05-03T04:33:12.438Z,2.30
2019-05-03T04:58:01.468Z,2.37
2019-05-03T05:16:15.822Z,2.30
2019-05-03T05:18:58.691Z,2.27
2019-05-03T05:45:24.560Z,2.13
2019-05-03T05:53:55.536Z,1.87
2019-05-03T06:05:04.853Z,1.73
2019-05-03T06:08:25.144Z,1.40
2019-05-03T06:15:01.330Z,1.80
2019-05-03T06:32:48.418Z,1.60
2019-05-03T06:46:05.325Z,1.50
2019-05-03T06:48:48.912Z,1.43
2019-05-03T06:51:21.444Z,1.80
2019-05-03T06:53:56.494Z,1.60
2019-05-03T06:56:52.282Z,1.60
2019-05-03T06:59:37.253Z,1.83
2019-05-03T07:02:20.099Z,1.77
2019-05-03T07:04:53.389Z,1.80
2019-05-03T07:07:44.486Z,1.57
2019-05-03T07:10:29.366Z,1.70
2019-05-03T07:13:00.865Z,1.50
2019-05-03T07:15:32.770Z,1.80
2019-05-03T07:18:06.083Z,1.43
2019-05-03T07:20:54.442Z,1.27
2019-05-03T07:23:27.544Z,1.60
2019-05-03T07:25:58.498Z,1.60
2019-05-03T07:28:47.171Z,1.80
2019-05-03T07:31:15.084Z,2.07
2019-05-03T07:33:45.757Z,1.77
2019-05-03T07:36:15.446Z,1.87
2019-05-03T07:38:51.731Z,1.50
2019-05-03T07:41:27.057Z,1.50
2019-05-03T07:43:57.912Z,1.43
2019-05-03T07:46:40.221Z,1.37
2019-05-03T07:49:09.437Z,1.63
2019-05-03T07:51:39.856Z,1.60
2019-05-03T07:54:11.796Z,1.47
2019-05-03T07:56:54.791Z,1.87
2019-05-03T07:59:32.830Z,1.77
2019-05-03T08:02:20.877Z,1.50
2019-05-03T08:05:10.955Z,1.60
2019-05-03T08:08:15.226Z,1.30
2019-05-03T08:10:46.336Z,2.00
2019-05-03T08:17:02.291Z,1.57
2019-05-03T08:19:37.509Z,2.10
2019-05-03T08:22:28.319Z,1.70
2019-05-03T08:25:14.619Z,1.40
2019-05-03T08:27:54.927Z,1.97
2019-05-03T08:34:15.329Z,1.53
2019-05-03T08:55:11.698Z,1.87
2019-05-03T08:57:56.769Z,1.70
2019-05-03T09:03:51.734Z,1.63
2019-05-03T09:06:24.684Z,1.60
2019-05-03T09:15:58.999Z,2.70
2019-05-03T09:19:14.605Z,1.57
2019-05-03T09:21:49.049Z,1.70
2019-05-03T09:24:19.126Z,1.67
2019-05-03T09:26:48.470Z,1.60
2019-05-03T09:29:17.760Z,1.60
2019-05-03T09:31:56.178Z,1.67
2019-05-03T09:34:26.331Z,1.53
2019-05-03T09:36:55.398Z,1.40
2019-05-03T09:39:28.929Z,1.93
2019-05-03T09:41:58.434Z,1.80
2019-05-03T09:44:35.038Z,1.87
2019-05-03T09:50:07.722Z,1.30
2019-05-03T09:52:36.517Z,1.40
2019-05-03T09:55:11.337Z,1.70
2019-05-03T09:57:40.362Z,1.47
2019-05-03T10:03:45.244Z,1.40
2019-05-03T10:06:15.488Z,1.60
2019-05-03T10:12:41.924Z,1.50
2019-05-03T10:22:17.080Z,2.20
2019-05-03T10:24:46.079Z,1.47
2019-05-03T10:27:49.282Z,1.50
2019-05-03T10:30:28.980Z,1.43
2019-05-03T10:33:45.219Z,1.30
2019-05-03T12:08:25.300Z,1.43
2019-05-03T12:11:01.453Z,1.60
2019-05-03T13:52:40.778Z,1.47
2019-05-03T15:30:04.721Z,1.50
2019-05-03T15:42:34.386Z,1.60
2019-05-03T16:44:50.250Z,5.77
2019-05-03T17:50:07.549Z,2.30
2019-05-03T18:01:26.205Z,2.13
2019-05-03T18:03:31.390Z,2.00
2019-05-03T18:09:57.346Z,2.47
2019-05-03T18:13:21.311Z,4.07
2019-05-03T18:26:40.646Z,2.63
2019-05-03T18:47:35.464Z,2.80
2019-05-03T18:54:11.440Z,2.90
2019-05-03T18:56:48.658Z,3.07
2019-05-03T19:00:09.287Z,3.43
2019-05-03T19:03:31.477Z,3.10
2019-05-03T19:13:40.135Z,2.50
2019-05-03T19:16:47.921Z,2.57
2019-05-03T19:19:55.982Z,2.80
2019-05-03T19:40:21.034Z,3.10
2019-05-03T19:43:35.459Z,3.43
2019-05-03T19:46:53.463Z,3.63
2019-05-03T19:50:01.925Z,3.10
2019-05-03T19:53:21.746Z,2.83
2019-05-03T19:56:25.670Z,3.70
2019-05-03T19:59:30.339Z,3.37
2019-05-03T20:06:45.056Z,3.07
2019-05-03T20:09:29.654Z,3.30
2019-05-03T20:15:21.594Z,3.23
2019-05-03T20:18:07.563Z,3.93
2019-05-03T20:20:36.940Z,2.57
2019-05-03T20:23:14.706Z,3.43
2019-05-03T20:26:00.644Z,3.20
2019-05-03T20:28:30.059Z,3.83
2019-05-03T20:30:58.979Z,3.70
2019-05-03T20:33:29.072Z,3.80
2019-05-03T20:36:35.963Z,3.27
2019-05-03T20:43:20.524Z,3.50
2019-05-03T20:46:41.011Z,2.97
2019-05-03T20:50:31.879Z,3.47
2019-05-03T20:53:11.346Z,2.93
2019-05-03T20:55:45.750Z,3.30
2019-05-03T20:58:26.566Z,4.90
2019-05-03T21:00:58.028Z,4.50
2019-05-03T21:03:29.409Z,3.70
2019-05-03T21:06:02.429Z,3.57
2019-05-03T21:08:34.698Z,3.50
2019-05-03T21:11:05.419Z,4.30
2019-05-03T21:13:42.524Z,5.17
2019-05-03T21:16:51.756Z,4.07
2019-05-03T21:19:47.410Z,4.30
2019-05-03T21:22:30.966Z,3.50
2019-05-03T21:25:28.710Z,3.67
2019-05-03T21:28:10.069Z,3.80
2019-05-03T21:30:52.585Z,4.30
2019-05-03T21:33:22.488Z,3.60
2019-05-03T21:35:59.357Z,3.20
2019-05-03T21:38:35.816Z,3.33
2019-05-03T21:41:34.972Z,3.40
2019-05-03T21:45:00.313Z,4.37
2019-05-03T21:47:54.787Z,3.07
2019-05-03T21:50:44.657Z,3.37
2019-05-03T21:55:44.569Z,3.13
2019-05-03T21:56:20.545Z,2.93
2019-05-03T21:59:14.905Z,2.93
2019-05-03T22:02:18.187Z,2.93
2019-05-03T22:05:26.335Z,2.70
2019-05-03T22:08:20.517Z,2.90
2019-05-03T22:11:14.696Z,2.80
2019-05-03T22:14:15.639Z,3.17
2019-05-03T22:17:14.883Z,2.53
2019-05-03T22:19:59.914Z,2.70
2019-05-03T22:22:55.473Z,2.70
2019-05-03T22:28:37.637Z,2.60
2019-05-03T22:31:15.251Z,2.60
2019-05-03T22:34:15.138Z,2.60
2019-05-03T22:36:51.016Z,2.50
2019-05-03T22:39:30.334Z,3.00
2019-05-03T22:42:34.696Z,2.47
2019-05-03T22:45:17.539Z,2.67
2019-05-03T22:47:57.834Z,2.20
2019-05-03T22:51:04.804Z,2.13
2019-05-03T22:53:51.046Z,2.70
2019-05-03T22:56:46.173Z,2.47
2019-05-03T23:15:38.696Z,2.30
2019-05-03T23:19:06.112Z,2.33
2019-05-03T23:21:54.811Z,2.43
2019-05-03T23:24:39.839Z,2.77
2019-05-03T23:27:28.455Z,3.07
2019-05-03T23:30:30.672Z,3.20
2019-05-03T23:33:34.478Z,3.60
2019-05-03T23:39:44.615Z,2.90
2019-05-03T23:42:32.187Z,2.63
2019-05-03T23:45:52.211Z,3.10
2019-05-03T23:49:58.367Z,2.97
2019-05-03T23:55:53.935Z,2.60
2019-05-03T23:59:02.072Z,2.73
